Time;durP1;ratioP1;P1;durP2;ratioP2;P2;SDS_P1;SDS_P2;PMS_P1;PMS_P2;Temp;Humidity;BMP_temperature;BMP_pressure;BME280_temperature;BME280_humidity;BME280_pressure;Samples;Min_cycle;Max_cycle;Signal;HPM_P1;HPM_P2
2021/01/04 14:01:48;;;;;;;;;;;;;;;;;;5060552;27;70275;-64
2021/01/04 14:04:39;;;;;;;;;;;;;;;21.96;43.25;101222.56;2075361;27;13481;-63
2021/01/04 14:05:39;;;;;;;;;;;;;;;21.80;43.56;101214.66;2094895;27;12601;-63
2021/01/04 14:07:34;;;;;;;;;;;;;;;21.74;44.21;101210.38;2111330;27;13268;-63
2021/01/04 14:08:34;;;;;;;;;;;;;;;21.72;44.27;101207.06;2110817;27;40890;-56
2021/01/04 14:09:35;;;;;;;;;;;;;;;21.74;43.91;101213.22;2112381;28;23176;-58
2021/01/04 14:10:35;;;;;;;;;;;;;;;21.75;43.79;101206.34;2110350;28;39802;-60
2021/01/04 14:11:35;;;;;;;;;;;;;;;21.75;44.16;101208.34;2109509;28;42184;-60
2021/01/04 14:12:35;;;;;;;;;;;;;;;21.79;44.06;101210.16;2111776;28;37710;-55
2021/01/04 14:13:36;;;;;;;;;;;;;;;21.79;43.70;101209.31;2108954;27;40870;-55
2021/01/04 14:14:37;;;;;;;;;;;;;;;21.78;44.19;101211.34;2106361;27;13082;-56
2021/01/04 14:15:37;;;;;;;;;;;;;;;21.77;43.91;101212.50;2110511;28;41284;-58
2021/01/04 14:16:37;;;;;;;;;;;;;;;21.76;43.93;101210.84;2109197;28;42100;-57
2021/01/04 14:17:37;;;;;;;;;;;;;;;21.79;43.77;101221.53;2110524;28;40501;-60
2021/01/04 14:18:38;;;;;;;;;;;;;;;21.80;44.03;101216.69;2109591;28;39692;-60
2021/01/04 14:19:38;;;;;;;;;;;;;;;21.79;44.04;101221.53;2111416;27;42472;-60
2021/01/04 14:22:32;;;;;;;;;;;;;;;22.01;45.05;101259.38;2102270;28;13284;-36
2021/01/04 14:23:32;;;;;;;;;;;;;;;21.66;45.91;101251.13;2096601;28;41170;-36
2021/01/04 14:24:32;;;;;;;;;;;;;;;21.48;46.51;101253.31;2096541;28;35335;-36
2021/01/04 14:25:33;;;;;;;;;;;;;;;21.42;46.58;101251.00;2094613;28;42225;-36
2021/01/04 14:26:34;;;;;;;;;;;;;;;21.37;46.84;101245.50;2096814;28;40031;-36
2021/01/04 14:27:34;;;;;;;;;;;;;;;21.34;46.82;101252.69;2093711;28;34818;-36
2021/01/04 14:28:35;;;;;;;;;;;;;;;21.33;47.25;101251.84;2095179;28;12136;-37
2021/01/04 14:29:35;;;;;;;;;;;;;;;21.32;47.09;101246.50;2092634;28;41673;-36
2021/01/04 14:30:35;;;;;;;;;;;;;;;21.31;47.05;101244.84;2094204;28;12877;-36
2021/01/04 14:31:37;;;;;;;;;;;;;;;21.31;47.12;101248.53;2097309;28;41107;-36
2021/01/04 14:32:37;;;;;;;;;;;;;;;21.30;47.16;101251.72;2096212;28;12922;-35
2021/01/04 14:33:37;;;;;;;;;;;;;;;21.30;47.19;101252.53;2097028;28;20705;-36
2021/01/04 14:34:41;;;;;;;;;;;;;;;21.30;47.25;101254.56;2096189;28;42302;-36
2021/01/04 14:35:41;;;;;;;;;;;;;;;21.31;47.30;101251.38;2095466;28;40996;-35
2021/01/04 14:36:41;;;;;;;;;;;;;;;21.28;47.62;101259.75;2094808;28;41456;-35
2021/01/04 14:37:41;;;;;;;;;;;;;;;21.30;47.73;101257.41;2096534;28;38363;-35
2021/01/04 14:38:42;;;;;;;;;;;;;;;21.30;47.77;101260.25;2094756;28;12962;-35
2021/01/04 14:39:42;;;;;;;;;;;;;;;21.30;47.58;101261.06;2094404;28;42461;-36
2021/01/04 14:40:42;;;;;;;;;;;;;;;21.30;47.74;101255.38;2091659;28;39075;-36
2021/01/04 14:41:42;;;;;;;;;;;;;;;21.27;47.92;101256.06;2097640;28;42194;-36
2021/01/04 14:42:43;;;;;;;;;;;;;;;21.28;47.68;101256.91;2094448;28;41373;-36
2021/01/04 14:43:43;;;;;;;;;;;;;;;21.28;47.95;101252.06;2095265;28;12819;-36
2021/01/04 14:44:43;;;;;;;;;;;;;;;21.30;47.72;101258.22;2093785;28;41901;-35
2021/01/04 14:45:44;;;;;;;;;;;;;;;21.29;47.93;101256.56;2093875;28;13439;-35
2021/01/04 14:46:44;;;;;;;;;;;;;;;21.25;47.95;101257.59;2098229;28;43009;-36
2021/01/04 14:47:44;;;;;;;;;;;;;;;21.21;47.74;101250.94;2092704;28;43544;-35
2021/01/04 14:48:45;;;;;;;;;;;;;;;20.40;43.50;101255.59;2097012;28;44107;-36
2021/01/04 14:49:45;;;;;;;;;;;;;;;19.31;44.37;101256.63;2095087;28;40542;-36
2021/01/04 14:50:46;;;;;;;;;;;;;;;18.91;42.86;101251.03;2097002;28;42429;-35
2021/01/04 14:51:46;;;;;;;;;;;;;;;18.54;42.25;101253.19;2095603;28;32292;-35
2021/01/04 14:52:47;;;;;;;;;;;;;;;18.53;43.45;101251.53;2096988;28;13462;-35
2021/01/04 14:53:47;;;;;;;;;;;;;;;19.18;45.41;101246.25;2095591;28;35928;-35
2021/01/04 14:54:48;;;;;;;;;;;;;;;19.61;46.14;101251.19;2096139;28;43136;-34
2021/01/04 14:55:48;;;;;;;;;;;;;;;20.00;47.65;101255.84;2097458;28;33120;-35
2021/01/04 14:56:48;;;;;;;;;;;;;;;20.32;46.32;101247.94;2095278;28;43120;-35
2021/01/04 14:57:49;;;;;;;;;;;;;;;20.55;45.68;101254.28;2096694;28;42538;-36
2021/01/04 14:58:49;;;;;;;;;;;;;;;20.65;45.54;101251.91;2095392;28;43998;-35
2021/01/04 14:59:49;;;;;;;;;;;;;;;20.76;45.22;101252.34;2095072;28;40110;-41
2021/01/04 15:00:49;;;;;;;;;;;;;;;20.85;45.03;101250.28;2095002;28;42968;-36
2021/01/04 15:01:50;;;;;;;;;;;;;;;20.91;45.18;101251.75;2093743;28;43936;-36
2021/01/04 15:02:50;;;;;;;;;;;;;;;20.96;45.21;101247.06;2096358;28;40032;-36
2021/01/04 15:03:50;;;;;;;;;;;;;;;21.00;45.24;101248.88;2096713;28;39595;-35
2021/01/04 15:04:51;;;;;;;;;;;;;;;21.05;44.84;101242.16;2097269;28;43920;-35
2021/01/04 15:05:51;;;;;;;;;;;;;;;21.11;44.88;101252.16;2098481;28;13687;-35
2021/01/04 15:06:55;;;;;;;;;;;;;;;21.09;45.59;101248.84;2094296;28;13520;-34
2021/01/04 15:07:55;;;;;;;;;;;;;;;21.15;45.55;101253.16;2098191;28;13404;-35
2021/01/04 15:08:55;;;;;;;;;;;;;;;21.15;45.73;101247.47;2090107;28;43359;-34
2021/01/04 15:09:56;;;;;;;;;;;;;;;21.14;45.77;101248.63;2093162;28;44096;-35
2021/01/04 15:10:56;;;;;;;;;;;;;;;21.19;45.61;101256.13;2093057;28;40017;-36
2021/01/04 15:11:56;;;;;;;;;;;;;;;21.21;45.57;101250.94;2095734;28;43232;-36
2021/01/04 15:12:56;;;;;;;;;;;;;;;21.21;45.57;101246.09;2100136;28;14721;-35
2021/01/04 15:13:56;;;;;;;;;;;;;;;21.22;45.68;101252.59;2095387;28;43131;-35
2021/01/04 15:14:57;;;;;;;;;;;;;;;21.23;45.40;101248.59;2095833;28;43326;-35
2021/01/04 15:15:57;;;;;;;;;;;;;;;21.18;45.56;101252.47;2097848;28;44218;-35
2021/01/04 15:16:57;;;;;;;;;;;;;;;21.21;45.54;101251.78;2097125;28;33262;-35
2021/01/04 15:17:58;;;;;;;;;;;;;;;21.21;45.54;101248.94;2095787;28;19446;-35
2021/01/04 15:18:58;;;;;;;;;;;;;;;21.24;45.62;101248.22;2096152;28;43266;-35
2021/01/04 15:19:58;;;;;;;;;;;;;;;21.22;45.67;101249.75;2092835;28;44516;-35
2021/01/04 15:20:58;;;;;;;;;;;;;;;21.22;45.75;101253.44;2097166;28;40023;-35
2021/01/04 15:21:59;;;;;;;;;;;;;;;21.24;45.65;101251.06;2097281;28;43263;-35
2021/01/04 15:22:59;;;;;;;;;;;;;;;21.27;45.80;101252.41;2094774;28;44622;-35
2021/01/04 15:23:59;;;;;;;;;;;;;;;21.21;45.71;101248.09;2094323;28;43107;-35
2021/01/04 15:24:59;;;;;;;;;;;;;;;21.27;45.98;101246.72;2095505;28;42045;-35
2021/01/04 15:25:59;;;;;;;;;;;;;;;21.20;45.79;101252.97;2096890;28;44229;-35
2021/01/04 15:27:00;;;;;;;;;;;;;;;19.72;42.75;101255.38;2095474;28;42914;-36
2021/01/04 15:28:01;;;;;;;;;;;;;;;19.85;46.16;101242.16;2095420;28;14169;-35
2021/01/04 15:29:01;;;;;;;;;;;;;;;20.12;47.65;101253.16;2095583;28;41207;-35
2021/01/04 15:30:01;;;;;;;;;;;;;;;20.55;47.04;101245.75;2090515;28;41969;-35
2021/01/04 15:31:01;;;;;;;;;;;;;;;20.83;45.97;101252.63;2093377;28;38590;-36
2021/01/04 15:32:02;;;;;;;;;;;;;;;21.01;45.71;101246.88;2093508;28;41170;-36
2021/01/04 15:33:02;;;;;;;;;;;;;;;21.04;45.80;101246.19;2096917;28;42408;-36
2021/01/04 15:34:03;;;;;;;;;;;;;;;21.05;45.83;101247.84;2090957;28;38360;-36
2021/01/04 15:35:04;;;;;;;;;;;;;;;21.05;45.76;101245.84;2092237;28;12846;-35
2021/01/04 15:36:06;;;;;;;;;;;;;;;21.06;45.86;101249.50;2088006;28;37693;-36
2021/01/04 15:37:06;;;;;;;;;;;;;;;21.06;45.90;101243.81;2090512;28;38049;-35
2021/01/04 15:38:06;;;;;;;;;;;;;;;21.05;46.08;101242.16;2088117;28;41063;-36
2021/01/04 15:39:06;;;;;;;;;;;;;;;21.06;46.20;101244.69;2090762;28;42393;-36
2021/01/04 15:40:07;;;;;;;;;;;;;;;21.04;46.13;101247.03;2088392;28;40398;-35
2021/01/04 15:41:08;;;;;;;;;;;;;;;21.07;46.24;101252.03;2090312;28;42712;-36
2021/01/04 15:42:08;;;;;;;;;;;;;;;21.06;46.38;101247.53;2091630;28;40833;-35
2021/01/04 15:43:08;;;;;;;;;;;;;;;21.06;46.42;101241.84;2087098;28;41227;-36
2021/01/04 15:44:09;;;;;;;;;;;;;;;21.14;46.22;101248.63;2087416;28;42560;-36
2021/01/04 15:45:09;;;;;;;;;;;;;;;21.16;46.01;101245.44;2091154;28;38233;-36
2021/01/04 15:46:10;;;;;;;;;;;;;;;21.16;45.97;101245.44;2088437;28;42220;-36
2021/01/04 15:47:10;;;;;;;;;;;;;;;21.18;46.00;101251.63;2089451;28;13234;-35
2021/01/04 15:48:10;;;;;;;;;;;;;;;21.15;46.26;101247.47;2091480;28;40944;-36
2021/01/04 15:49:10;;;;;;;;;;;;;;;21.14;46.23;101242.94;2087971;28;39771;-35
2021/01/04 15:50:11;;;;;;;;;;;;;;;21.13;46.08;101250.63;2087109;28;42986;-36
2021/01/04 15:51:11;;;;;;;;;;;;;;;21.16;46.25;101251.13;2090311;28;44347;-35
2021/01/04 15:52:11;;;;;;;;;;;;;;;21.14;46.19;101257.16;2086819;28;39801;-35
2021/01/04 15:53:12;;;;;;;;;;;;;;;21.12;46.21;101245.31;2088147;28;28382;-35
2021/01/04 15:54:12;;;;;;;;;;;;;;;21.13;46.21;101255.50;2091695;28;43571;-35
2021/01/04 15:55:12;;;;;;;;;;;;;;;21.11;46.29;101258.69;2089999;28;38957;-35
2021/01/04 15:56:13;;;;;;;;;;;;;;;21.13;46.26;101258.34;2089101;28;43223;-36
2021/01/04 15:57:13;;;;;;;;;;;;;;;21.12;46.23;101260.38;2089253;28;43929;-35
2021/01/04 15:58:13;;;;;;;;;;;;;;;21.15;46.12;101258.00;2088556;28;27299;-35
2021/01/04 15:59:13;;;;;;;;;;;;;;;21.11;46.33;101263.53;2091997;28;42291;-36
2021/01/04 16:00:15;;;;;;;;;;;;;;;21.16;46.38;101265.38;2092859;28;44151;-36
2021/01/04 16:01:15;;;;;;;;;;;;;;;21.17;46.14;101255.63;2088634;28;13186;-37
2021/01/04 16:02:15;;;;;;;;;;;;;;;21.16;46.39;101254.81;2092276;28;44069;-35
2021/01/04 16:03:16;;;;;;;;;;;;;;;21.18;46.28;101258.16;2089510;28;39835;-36
2021/01/04 16:04:17;;;;;;;;;;;;;;;21.19;46.31;101256.97;2090465;28;40000;-36
2021/01/04 16:05:17;;;;;;;;;;;;;;;21.19;46.17;101259.81;2090546;28;41619;-36
2021/01/04 16:06:17;;;;;;;;;;;;;;;21.20;46.17;101261.50;2090979;28;43811;-35
2021/01/04 16:07:17;;;;;;;;;;;;;;;21.22;46.15;101264.81;2090781;28;40001;-35
2021/01/04 16:08:18;;;;;;;;;;;;;;;21.23;46.18;101259.97;2087688;28;42685;-36
2021/01/04 16:09:18;;;;;;;;;;;;;;;21.24;46.05;101268.16;2091059;28;44103;-35
2021/01/04 16:10:18;;;;;;;;;;;;;;;21.27;46.09;101260.94;2090141;28;13605;-35
2021/01/04 16:11:21;;;;;;;;;;;;;;;21.27;46.01;101261.78;2090365;28;39977;-35
2021/01/04 16:12:22;;;;;;;;;;;;;;;21.25;46.10;101266.13;2091154;28;43335;-36
2021/01/04 16:13:22;;;;;;;;;;;;;;;21.28;46.08;101268.28;2091823;28;44438;-36
2021/01/04 16:14:22;;;;;;;;;;;;;;;21.26;46.15;101270.66;2092859;28;42125;-35
2021/01/04 16:15:23;;;;;;;;;;;;;;;21.30;46.15;101268.78;2092380;28;43743;-36
2021/01/04 16:16:23;;;;;;;;;;;;;;;21.31;46.07;101267.59;2092762;28;41890;-35
2021/01/04 16:17:23;;;;;;;;;;;;;;;21.30;46.08;101269.63;2088187;28;42689;-35
2021/01/04 16:18:23;;;;;;;;;;;;;;;21.31;46.20;101270.44;2089785;28;44117;-35
2021/01/04 16:19:24;;;;;;;;;;;;;;;21.33;46.16;101270.94;2093590;28;40740;-35
2021/01/04 16:20:25;;;;;;;;;;;;;;;21.32;46.07;101272.13;2087962;28;44755;-35
2021/01/04 16:21:26;;;;;;;;;;;;;;;21.32;46.09;101274.97;2092480;28;13647;-35
2021/01/04 16:22:26;;;;;;;;;;;;;;;21.28;46.28;101271.13;2085151;28;43289;-36
2021/01/04 16:23:26;;;;;;;;;;;;;;;21.28;46.30;101272.00;2090927;28;43208;-35
2021/01/04 16:24:27;;;;;;;;;;;;;;;21.30;46.15;101277.31;2089725;28;13584;-35
2021/01/04 16:25:27;;;;;;;;;;;;;;;21.29;46.24;101273.66;2088183;28;13493;-35
2021/01/04 16:26:27;;;;;;;;;;;;;;;21.33;46.23;101283.16;2086431;28;44125;-35
2021/01/04 16:27:27;;;;;;;;;;;;;;;21.32;46.27;101281.50;2090777;28;44434;-35
2021/01/04 16:28:28;;;;;;;;;;;;;;;21.31;46.40;101276.13;2087231;28;40283;-36
2021/01/04 16:29:28;;;;;;;;;;;;;;;21.30;46.26;101277.31;2090659;28;43570;-35
2021/01/04 16:30:28;;;;;;;;;;;;;;;21.28;46.40;101276.81;2089547;28;43951;-35
2021/01/04 16:31:28;;;;;;;;;;;;;;;21.29;46.24;101278.50;2091932;28;39785;-35
2021/01/04 16:32:29;;;;;;;;;;;;;;;21.28;46.30;101274.84;2087242;28;39489;-36
2021/01/04 16:33:29;;;;;;;;;;;;;;;21.29;46.41;101278.50;2091384;28;42330;-36
2021/01/04 16:34:29;;;;;;;;;;;;;;;21.30;46.43;101274.47;2087442;28;22846;-36
2021/01/04 16:35:30;;;;;;;;;;;;;;;21.29;46.71;101278.50;2090622;28;40508;-36
2021/01/04 16:36:31;;;;;;;;;;;;;;;21.27;46.46;101281.69;2093241;28;12738;-36
2021/01/04 16:37:31;;;;;;;;;;;;;;;21.26;46.51;101277.19;2092021;28;38322;-36
2021/01/04 16:38:31;;;;;;;;;;;;;;;21.24;46.42;101273.84;2090402;28;41268;-37
2021/01/04 16:39:31;;;;;;;;;;;;;;;21.27;46.58;101272.31;2088656;28;42048;-36
2021/01/04 16:40:32;;;;;;;;;;;;;;;21.26;46.54;101270.66;2089182;28;38653;-36
2021/01/04 16:41:32;;;;;;;;;;;;;;;21.25;46.43;101266.97;2091764;28;41488;-37
2021/01/04 16:42:32;;;;;;;;;;;;;;;21.25;46.64;101269.81;2088919;28;42675;-36
2021/01/04 16:43:32;;;;;;;;;;;;;;;21.23;46.65;101268.50;2087957;28;41796;-36
2021/01/04 16:44:33;;;;;;;;;;;;;;;21.22;46.63;101272.53;2090302;28;40656;-36
2021/01/04 16:45:33;;;;;;;;;;;;;;;21.21;46.60;101273.72;2085134;28;41431;-36
2021/01/04 16:46:36;;;;;;;;;;;;;;;21.22;46.66;101272.53;2092826;28;18102;-36
2021/01/04 16:47:37;;;;;;;;;;;;;;;21.20;46.64;101274.88;2088786;28;12819;-36
2021/01/04 16:48:37;;;;;;;;;;;;;;;21.21;46.61;101268.03;2090995;28;42367;-35
2021/01/04 16:49:37;;;;;;;;;;;;;;;21.22;46.65;101281.06;2087585;28;38422;-36
2021/01/04 16:50:37;;;;;;;;;;;;;;;21.21;46.63;101268.84;2090679;28;40169;-35
2021/01/04 16:51:38;;;;;;;;;;;;;;;21.21;46.65;101268.84;2090185;28;12873;-36
2021/01/04 16:52:38;;;;;;;;;;;;;;;21.20;46.83;101269.19;2091961;28;42062;-35
2021/01/04 16:53:38;;;;;;;;;;;;;;;21.19;46.77;101274.03;2089929;28;13436;-36
2021/01/04 16:54:39;;;;;;;;;;;;;;;21.20;46.60;101275.72;2093439;28;42245;-36
2021/01/04 16:55:39;;;;;;;;;;;;;;;21.22;46.69;101270.50;2088693;28;44355;-36
2021/01/04 16:56:39;;;;;;;;;;;;;;;21.24;46.76;101271.00;2088178;28;40766;-36
2021/01/04 16:57:39;;;;;;;;;;;;;;;21.22;46.75;101270.50;2088887;28;42695;-36
2021/01/04 16:58:40;;;;;;;;;;;;;;;21.24;46.66;101273.84;2091839;28;43869;-36
2021/01/04 16:59:40;;;;;;;;;;;;;;;21.26;46.76;101271.50;2088878;28;40627;-36
2021/01/04 17:00:40;;;;;;;;;;;;;;;21.28;46.56;101274.84;2089113;28;13341;-35
2021/01/04 17:01:41;;;;;;;;;;;;;;;21.30;46.64;101271.63;2089677;28;42658;-36
2021/01/04 17:02:41;;;;;;;;;;;;;;;21.29;46.72;101278.50;2089639;28;32138;-36
2021/01/04 17:03:47;;;;;;;;;;;;;;;21.32;46.64;101281.50;2088185;28;44189;-36
2021/01/04 17:04:47;;;;;;;;;;;;;;;21.36;46.99;101281.63;2086931;28;13355;-36
2021/01/04 17:05:47;;;;;;;;;;;;;;;21.35;46.92;101272.28;2088810;28;42795;-36
2021/01/04 17:06:51;;;;;;;;;;;;;;;21.39;47.00;101280.16;2088234;28;43985;-36
2021/01/04 17:07:51;;;;;;;;;;;;;;;21.39;46.87;101274.44;2089071;28;18522;-36
2021/01/04 17:08:51;;;;;;;;;;;;;;;21.38;47.23;101281.34;2086130;28;44309;-35
2021/01/04 17:09:52;;;;;;;;;;;;;;;21.38;47.15;101284.19;2089385;28;14441;-35
2021/01/04 17:10:52;;;;;;;;;;;;;;;21.39;47.01;101274.44;2090272;28;43036;-36
2021/01/04 17:11:54;;;;;;;;;;;;;;;21.40;47.07;101273.28;2088616;28;44160;-36
2021/01/04 17:12:55;;;;;;;;;;;;;;;21.38;47.10;101278.50;2087692;28;43653;-36
2021/01/04 17:13:55;;;;;;;;;;;;;;;21.40;46.92;101276.97;2090754;28;40070;-37
2021/01/04 17:14:55;;;;;;;;;;;;;;;21.44;46.83;101272.22;2086710;28;13462;-36
2021/01/04 17:15:55;;;;;;;;;;;;;;;21.45;47.05;101278.75;2088461;28;44357;-36
2021/01/04 17:16:56;;;;;;;;;;;;;;;21.46;46.89;101277.59;2087238;28;40144;-36
2021/01/04 17:17:56;;;;;;;;;;;;;;;21.47;46.88;101267.88;2088533;28;13700;-36
2021/01/04 17:18:57;;;;;;;;;;;;;;;21.49;46.72;101272.03;2088156;28;42842;-36
2021/01/04 17:19:57;;;;;;;;;;;;;;;21.53;46.86;101277.88;2087824;28;27262;-35
2021/01/04 17:20:57;;;;;;;;;;;;;;;21.55;47.11;101266.97;2091986;28;13685;-36
2021/01/04 17:21:58;;;;;;;;;;;;;;;21.55;47.08;101272.66;2087949;28;44299;-36
2021/01/04 17:22:58;;;;;;;;;;;;;;;21.52;47.04;101262.81;2085349;28;43302;-36
2021/01/04 17:23:59;;;;;;;;;;;;;;;21.53;46.98;101270.19;2087341;28;43032;-36
2021/01/04 17:24:59;;;;;;;;;;;;;;;21.49;47.16;101265.50;2089583;28;13655;-36
2021/01/04 17:25:59;;;;;;;;;;;;;;;21.44;47.28;101272.22;2088375;28;40281;-37
2021/01/04 17:27:00;;;;;;;;;;;;;;;21.44;47.30;101268.56;2090205;28;43129;-36
2021/01/04 17:28:01;;;;;;;;;;;;;;;21.46;47.43;101280.44;2086950;28;42878;-36
2021/01/04 17:29:01;;;;;;;;;;;;;;;21.45;47.38;101287.28;2091527;28;13608;-36
2021/01/04 17:30:02;;;;;;;;;;;;;;;21.44;47.32;101288.50;2091226;28;40213;-37
2021/01/04 17:31:02;;;;;;;;;;;;;;;21.39;47.41;101285.84;2089564;28;44351;-36
2021/01/04 17:32:02;;;;;;;;;;;;;;;21.37;47.55;101279.66;2090087;28;44250;-35
2021/01/04 17:33:02;;;;;;;;;;;;;;;21.34;47.50;101284.00;2085483;28;43205;-36
2021/01/04 17:34:03;;;;;;;;;;;;;;;21.35;47.32;101285.66;2092276;28;40070;-36
2021/01/04 17:35:04;;;;;;;;;;;;;;;21.33;47.23;101271.78;2086259;28;43270;-36
2021/01/04 17:36:05;;;;;;;;;;;;;;;21.35;47.07;101280.81;2089243;28;45317;-37
2021/01/04 17:37:05;;;;;;;;;;;;;;;21.32;47.03;101272.97;2087298;28;41335;-36
2021/01/04 17:38:05;;;;;;;;;;;;;;;21.31;46.99;101273.28;2089506;28;42645;-36
2021/01/04 17:39:06;;;;;;;;;;;;;;;21.28;46.94;101276.81;2085282;28;41400;-36
2021/01/04 17:40:06;;;;;;;;;;;;;;;21.27;46.92;101280.88;2090237;28;41150;-36
2021/01/04 17:41:07;;;;;;;;;;;;;;;21.27;46.71;101276.00;2091369;28;13112;-37
2021/01/04 17:42:07;;;;;;;;;;;;;;;21.26;46.58;101276.34;2088739;28;41282;-35
2021/01/04 17:43:07;;;;;;;;;;;;;;;21.24;46.55;101268.16;2090568;28;12902;-36
2021/01/04 17:44:08;;;;;;;;;;;;;;;21.25;46.49;101269.81;2085810;28;41384;-36
2021/01/04 17:45:08;;;;;;;;;;;;;;;21.25;46.47;101275.50;2090557;28;28738;-36
2021/01/04 17:46:08;;;;;;;;;;;;;;;21.22;46.58;101270.50;2089824;28;40152;-36
2021/01/04 17:47:09;;;;;;;;;;;;;;;21.22;46.52;101263.97;2089979;28;42937;-36
2021/01/04 17:48:09;;;;;;;;;;;;;;;21.22;46.33;101270.50;2088704;28;39170;-36
2021/01/04 17:49:09;;;;;;;;;;;;;;;21.25;46.36;101278.34;2086142;28;33582;-37
2021/01/04 17:50:10;;;;;;;;;;;;;;;21.21;46.35;101276.56;2089394;28;40042;-37
2021/01/04 17:51:13;;;;;;;;;;;;;;;21.19;46.35;101271.19;2086489;28;33592;-36
2021/01/04 17:52:13;;;;;;;;;;;;;;;21.21;46.22;101283.06;2086891;28;42426;-36
2021/01/04 17:53:13;;;;;;;;;;;;;;;21.24;46.17;101288.06;2091001;28;38593;-36
2021/01/04 17:54:13;;;;;;;;;;;;;;;21.25;46.32;101277.53;2091346;28;41331;-37
2021/01/04 17:55:14;;;;;;;;;;;;;;;21.26;46.29;101285.72;2087801;28;20335;-37
2021/01/04 17:56:14;;;;;;;;;;;;;;;21.25;46.08;101281.19;2088307;28;41566;-36
2021/01/04 17:57:15;;;;;;;;;;;;;;;21.27;46.05;101280.88;2089549;28;26601;-36
2021/01/04 17:58:15;;;;;;;;;;;;;;;21.28;46.08;101282.53;2089498;28;14236;-37
2021/01/04 17:59:15;;;;;;;;;;;;;;;21.30;46.20;101286.69;2088142;28;40605;-36
2021/01/04 18:00:16;;;;;;;;;;;;;;;21.30;46.02;101291.56;2087962;28;13324;-36
2021/01/04 18:01:16;;;;;;;;;;;;;;;21.30;46.10;101286.69;2087356;28;44077;-37
2021/01/04 18:02:16;;;;;;;;;;;;;;;21.30;46.12;101283.00;2090485;28;43537;-37
2021/01/04 18:03:17;;;;;;;;;;;;;;;21.33;46.13;101286.00;2087993;28;39898;-37
2021/01/04 18:04:17;;;;;;;;;;;;;;;21.34;46.06;101296.22;2086782;28;43348;-36
2021/01/04 18:05:17;;;;;;;;;;;;;;;21.39;46.15;101294.38;2090396;28;42908;-37
2021/01/04 18:06:19;;;;;;;;;;;;;;;21.38;46.14;101289.88;2089734;28;13451;-36
2021/01/04 18:07:19;;;;;;;;;;;;;;;21.36;46.28;101293.03;2088915;28;40211;-36
2021/01/04 18:08:20;;;;;;;;;;;;;;;21.34;46.08;101284.84;2089874;28;42777;-36
2021/01/04 18:09:20;;;;;;;;;;;;;;;21.38;46.29;101287.03;2089423;28;38777;-36
2021/01/04 18:10:20;;;;;;;;;;;;;;;21.38;46.02;101289.88;2085049;28;43161;-36
2021/01/04 18:11:21;;;;;;;;;;;;;;;21.39;46.16;101291.53;2086103;28;43925;-36
2021/01/04 18:12:21;;;;;;;;;;;;;;;21.42;46.42;101286.00;2089970;28;24621;-36
2021/01/04 18:13:22;;;;;;;;;;;;;;;21.42;46.40;101296.53;2086878;28;42906;-36
2021/01/04 18:14:22;;;;;;;;;;;;;;;21.41;46.26;101292.03;2085842;28;42981;-37
2021/01/04 18:15:22;;;;;;;;;;;;;;;21.40;46.42;101294.03;2088269;28;44048;-36
2021/01/04 18:16:22;;;;;;;;;;;;;;;21.38;46.35;101290.69;2090484;28;40097;-36
2021/01/04 18:17:26;;;;;;;;;;;;;;;21.38;46.32;101290.69;2091926;28;44140;-36
2021/01/04 18:18:26;;;;;;;;;;;;;;;21.38;46.38;101289.88;2090597;28;12073;-36
2021/01/04 18:19:26;;;;;;;;;;;;;;;21.37;46.52;101288.19;2086243;28;44347;-36
2021/01/04 18:20:26;;;;;;;;;;;;;;;21.39;46.42;101291.53;2088038;28;38659;-36
2021/01/04 18:21:29;;;;;;;;;;;;;;;21.37;46.49;101288.19;2088400;28;43244;-36
2021/01/04 18:22:30;;;;;;;;;;;;;;;21.38;46.37;101289.88;2090599;28;13522;-36
2021/01/04 18:23:30;;;;;;;;;;;;;;;21.38;46.35;101289.88;2095308;28;43852;-36
2021/01/04 18:24:30;;;;;;;;;;;;;;;21.37;46.56;101293.88;2080911;28;40898;-36
2021/01/04 18:25:30;;;;;;;;;;;;;;;21.38;46.55;101290.69;2086560;28;13486;-36
2021/01/04 18:26:31;;;;;;;;;;;;;;;21.36;46.46;101293.03;2087195;28;42024;-36
2021/01/04 18:27:31;;;;;;;;;;;;;;;21.34;46.64;101296.22;2091038;28;26737;-37
2021/01/04 18:28:32;;;;;;;;;;;;;;;21.38;46.51;101289.88;2088756;28;42981;-36
2021/01/04 18:29:32;;;;;;;;;;;;;;;21.38;46.43;101295.56;2088215;28;44193;-37
2021/01/04 18:30:32;;;;;;;;;;;;;;;21.38;46.68;101292.72;2088707;28;25754;-35
2021/01/04 18:31:33;;;;;;;;;;;;;;;21.37;46.50;101296.72;2086273;28;43356;-37
2021/01/04 18:32:33;;;;;;;;;;;;;;;21.38;46.51;101304.94;2087009;28;20879;-36
2021/01/04 18:33:34;;;;;;;;;;;;;;;21.41;46.44;101303.41;2089852;28;41521;-35
2021/01/04 18:34:34;;;;;;;;;;;;;;;21.38;46.43;101295.56;2090369;28;44243;-35
2021/01/04 18:35:34;;;;;;;;;;;;;;;21.37;46.51;101306.13;2087077;28;40139;-36
2021/01/04 18:36:35;;;;;;;;;;;;;;;21.39;46.57;101300.06;2086323;28;43088;-36
2021/01/04 18:37:35;;;;;;;;;;;;;;;21.40;46.51;101302.59;2090638;28;32316;-36
2021/01/04 18:38:35;;;;;;;;;;;;;;;21.42;46.75;101303.09;2093073;28;40275;-37
2021/01/04 18:39:36;;;;;;;;;;;;;;;21.44;46.80;101302.72;2090205;28;42889;-36
2021/01/04 18:40:36;;;;;;;;;;;;;;;21.45;46.77;101295.84;2090402;28;41787;-37
2021/01/04 18:41:36;;;;;;;;;;;;;;;21.42;47.15;101302.22;2089798;28;39100;-35
2021/01/04 18:42:36;;;;;;;;;;;;;;;21.45;47.14;101305.25;2087845;28;42021;-36
2021/01/04 18:43:37;;;;;;;;;;;;;;;21.45;47.09;101301.53;2091187;28;42494;-36
2021/01/04 18:44:38;;;;;;;;;;;;;;;21.44;47.09;101308.41;2088869;28;38833;-36
2021/01/04 18:45:38;;;;;;;;;;;;;;;21.41;47.08;101307.09;2089021;28;21940;-36
2021/01/04 18:46:38;;;;;;;;;;;;;;;21.45;47.83;101312.91;2087329;28;43568;-36
2021/01/04 18:47:40;;;;;;;;;;;;;;;21.29;47.17;101304.97;2089559;28;12735;-36
2021/01/04 18:48:40;;;;;;;;;;;;;;;21.14;47.55;101305.53;2088914;28;12790;-35
2021/01/04 18:49:40;;;;;;;;;;;;;;;21.06;48.10;101312.09;2088174;28;35490;-36
2021/01/04 18:50:40;;;;;;;;;;;;;;;20.98;48.30;101304.44;2087268;28;41101;-36
2021/01/04 18:51:41;;;;;;;;;;;;;;;20.96;48.13;101312.50;2087600;28;23236;-36
2021/01/04 18:52:46;;;;;;;;;;;;;;;20.93;48.14;101305.47;2091137;28;35448;-36
2021/01/04 18:53:46;;;;;;;;;;;;;;;20.91;48.09;101308.66;2091303;28;12262;-36
2021/01/04 18:54:47;;;;;;;;;;;;;;;20.88;48.15;101311.34;2090480;28;42310;-36
2021/01/04 18:55:47;;;;;;;;;;;;;;;20.86;48.20;101311.69;2089595;28;41231;-36
2021/01/04 18:56:47;;;;;;;;;;;;;;;20.85;48.10;101312.84;2087054;28;38398;-37
2021/01/04 18:57:47;;;;;;;;;;;;;;;20.84;48.11;101304.66;2088467;28;41361;-35
2021/01/04 18:58:48;;;;;;;;;;;;;;;20.85;48.12;101312.84;2091793;28;42314;-36
2021/01/04 18:59:48;;;;;;;;;;;;;;;20.90;48.03;101309.00;2090399;28;39126;-42
2021/01/04 19:00:48;;;;;;;;;;;;;;;21.02;47.87;101313.97;2086309;28;41573;-35
2021/01/04 19:01:49;;;;;;;;;;;;;;;21.10;47.88;101318.78;2087179;28;38603;-36
2021/01/04 19:02:50;;;;;;;;;;;;;;;21.17;47.38;101309.69;2089458;28;12151;-36
2021/01/04 19:03:50;;;;;;;;;;;;;;;21.19;47.40;101311.03;2087634;28;44170;-36
2021/01/04 19:04:50;;;;;;;;;;;;;;;21.19;47.35;101299.66;2089508;28;20771;-36
2021/01/04 19:05:50;;;;;;;;;;;;;;;21.26;47.19;101307.66;2088169;28;44246;-36
2021/01/04 19:06:53;;;;;;;;;;;;;;;21.31;47.24;101305.44;2088110;28;39970;-36
2021/01/04 19:07:55;;;;;;;;;;;;;;;21.38;47.24;101309.78;2088294;28;42808;-36
2021/01/04 19:08:55;;;;;;;;;;;;;;;21.39;47.09;101308.59;2089899;28;13370;-35
2021/01/04 19:09:55;;;;;;;;;;;;;;;21.40;47.11;101305.44;2089766;28;42666;-37
2021/01/04 19:10:55;;;;;;;;;;;;;;;21.43;47.14;101310.44;2088532;28;43972;-36
2021/01/04 19:11:56;;;;;;;;;;;;;;;21.43;47.19;101304.75;2091777;28;40074;-36
2021/01/04 19:12:57;;;;;;;;;;;;;;;21.42;47.12;101308.78;2089843;28;39953;-36
2021/01/04 19:13:57;;;;;;;;;;;;;;;21.45;47.09;101301.53;2090115;28;24999;-36
2021/01/04 19:14:57;;;;;;;;;;;;;;;21.45;47.08;101301.53;2088470;28;40081;-36
2021/01/04 19:15:57;;;;;;;;;;;;;;;21.45;47.02;101307.22;2089873;28;43134;-36
2021/01/04 19:17:02;;;;;;;;;;;;;;;21.43;47.07;101303.91;2092206;28;44122;-36